Nora, Nebraska
Current Conditions -  °F | °C
As of 5:15 AM on Friday 28 Nov 2014 (Local Time) from KHJH Reporting Station
Clear Clear  
Wind Chill: -2°   Ceiling: Unl
Heat Index: -2°   Visibility: 10mi
Dew Point: -6°   Wind: 3mph
Humidity: 72%   Direction: 240°WSW
Pressure: 29.92"   Gusts: NA
Location:  40.2199°N, 98.0479°W
Report Text: KHJH 281115Z AUTO 24003KT 10SM CLR M01/M06 A2992 RMK AO2 T10151060
Loading
Personal Weather Stations






























Interactive Weather Map New forecast layout! Learn more

10-Day Weather Forecast

Advertisements
Track Severe Weather on mobile